createdAt,value
2023-02-22T00:02:29.231Z,14.03
2023-02-22T00:06:31.158Z,10.77
2023-02-22T00:10:34.203Z,10.40
2023-02-22T00:14:34.649Z,10.53
2023-02-22T00:18:34.926Z,9.43
2023-02-22T00:22:38.337Z,10.97
2023-02-22T00:26:41.320Z,10.40
2023-02-22T00:30:43.827Z,8.00
2023-02-22T00:34:44.910Z,9.70
2023-02-22T00:38:45.807Z,7.37
2023-02-22T00:42:49.602Z,7.57
2023-02-22T00:46:50.054Z,10.40
2023-02-22T00:50:55.356Z,10.93
2023-02-22T00:54:57.949Z,10.63
2023-02-22T00:59:01.083Z,10.67
2023-02-22T01:03:02.699Z,8.40
2023-02-22T01:07:03.425Z,10.00
2023-02-22T01:11:04.124Z,8.47
2023-02-22T01:15:10.748Z,8.40
2023-02-22T01:19:12.657Z,8.43
2023-02-22T01:23:12.913Z,9.57
2023-02-22T01:27:14.326Z,8.47
2023-02-22T01:31:17.733Z,9.83
2023-02-22T01:35:24.021Z,7.60
2023-02-22T01:39:24.337Z,8.50
2023-02-22T01:43:29.725Z,8.90
2023-02-22T01:47:33.006Z,8.97
2023-02-22T01:51:39.491Z,10.00
2023-02-22T01:55:42.034Z,9.50
2023-02-22T01:59:51.462Z,7.87
2023-02-22T02:04:01.760Z,7.70
2023-02-22T02:08:08.965Z,7.73
2023-02-22T02:12:13.991Z,9.63
2023-02-22T02:16:17.464Z,11.03
2023-02-22T02:20:36.542Z,14.80
2023-02-22T02:25:38.304Z,20.17
2023-02-22T02:30:33.738Z,12.23
2023-02-22T02:34:51.047Z,17.37
2023-02-22T02:39:04.225Z,12.00
2023-02-22T02:43:21.377Z,21.23
2023-02-22T02:47:31.675Z,21.87
2023-02-22T02:51:43.770Z,17.13
2023-02-22T02:55:53.456Z,15.33
2023-02-22T03:00:04.092Z,40.10
2023-02-22T03:04:24.969Z,13.80
2023-02-22T03:08:44.510Z,13.07
2023-02-22T03:13:06.220Z,35.93
2023-02-22T03:17:25.018Z,20.67
2023-02-22T03:21:42.139Z,34.50
2023-02-22T03:25:55.130Z,15.30
2023-02-22T03:30:04.411Z,16.00
2023-02-22T03:34:17.376Z,13.73
2023-02-22T03:38:25.892Z,21.83
2023-02-22T03:42:41.111Z,25.43
2023-02-22T03:46:49.493Z,12.47
2023-02-22T03:50:59.836Z,47.30
2023-02-22T03:55:00.471Z,33.67
2023-02-22T03:59:12.760Z,14.17
2023-02-22T04:03:15.026Z,23.23
2023-02-22T04:07:19.884Z,100.77
2023-02-22T04:11:23.810Z,95.13
2023-02-22T04:15:27.980Z,25.30
2023-02-22T04:19:46.149Z,21.50
2023-02-22T04:23:50.335Z,24.20
2023-02-22T04:27:53.517Z,30.17
2023-02-22T04:32:25.786Z,15.10
2023-02-22T04:36:29.443Z,22.67
2023-02-22T04:40:33.742Z,18.90
2023-02-22T04:44:35.509Z,116.87
2023-02-22T04:48:55.476Z,52.33
2023-02-22T04:53:04.872Z,97.60
2023-02-22T04:57:08.758Z,149.20
2023-02-22T05:01:10.469Z,36.33
2023-02-22T05:05:16.297Z,165.23
2023-02-22T05:09:20.839Z,154.17
2023-02-22T05:13:38.520Z,119.40
2023-02-22T05:17:41.950Z,58.10
2023-02-22T05:21:50.513Z,146.27
2023-02-22T05:25:59.227Z,40.43
2023-02-22T05:30:03.876Z,153.97
2023-02-22T05:34:06.646Z,90.10
2023-02-22T05:38:16.552Z,88.70
2023-02-22T05:42:17.524Z,31.43
2023-02-22T05:46:18.640Z,31.70
2023-02-22T05:50:26.936Z,48.23
2023-02-22T05:54:34.339Z,40.87
2023-02-22T05:58:35.090Z,87.63
2023-02-22T06:02:37.263Z,106.97
2023-02-22T06:07:00.676Z,36.67
2023-02-22T06:11:05.207Z,31.40
2023-02-22T06:15:07.138Z,62.27
2023-02-22T06:19:09.899Z,53.07
2023-02-22T06:23:14.471Z,66.43
2023-02-22T06:27:20.623Z,225.80
2023-02-22T06:31:24.817Z,59.07
2023-02-22T06:35:25.614Z,263.93
2023-02-22T06:39:34.220Z,231.07
2023-02-22T06:43:40.572Z,240.20
2023-02-22T06:47:48.050Z,137.83
2023-02-22T06:51:50.281Z,94.97
2023-02-22T06:55:54.542Z,342.03
2023-02-22T06:59:58.026Z,331.73
2023-02-22T07:03:58.725Z,148.07
2023-02-22T07:08:15.222Z,248.50
2023-02-22T07:12:22.104Z,199.87
2023-02-22T07:16:30.750Z,124.50
2023-02-22T07:20:37.642Z,49.17
2023-02-22T07:24:43.289Z,48.87
2023-02-22T07:28:45.954Z,117.23
2023-02-22T07:33:14.525Z,56.50
2023-02-22T07:37:20.123Z,36.80
2023-02-22T07:41:21.264Z,23.90
2023-02-22T07:45:27.714Z,78.43
2023-02-22T07:49:31.995Z,42.67
2023-02-22T07:53:36.836Z,154.43
2023-02-22T07:57:49.054Z,16.53
2023-02-22T08:01:53.516Z,48.93
2023-02-22T08:06:03.614Z,20.13
2023-02-22T08:10:06.768Z,114.70
2023-02-22T08:14:14.438Z,84.50
2023-02-22T08:18:23.501Z,71.20
2023-02-22T08:22:31.546Z,77.97
2023-02-22T08:26:37.892Z,274.47
2023-02-22T08:30:43.844Z,148.47
2023-02-22T08:34:51.394Z,249.13
2023-02-22T08:38:58.533Z,124.13
2023-02-22T08:42:59.900Z,175.83
2023-02-22T08:47:04.534Z,159.27
2023-02-22T08:51:13.239Z,159.07
2023-02-22T08:55:17.829Z,54.37
2023-02-22T08:59:20.605Z,41.80
2023-02-22T09:03:28.472Z,30.07
2023-02-22T09:07:32.438Z,31.00
2023-02-22T09:11:45.494Z,27.03
2023-02-22T09:15:48.622Z,19.37
2023-02-22T09:19:56.661Z,37.00
2023-02-22T09:23:57.477Z,32.10
2023-02-22T09:28:02.134Z,35.17
2023-02-22T09:32:18.081Z,31.10
2023-02-22T09:36:26.138Z,34.60
2023-02-22T09:40:36.821Z,47.17
2023-02-22T09:44:54.750Z,32.13
2023-02-22T09:49:13.538Z,26.57
2023-02-22T09:53:33.285Z,23.93
2023-02-22T09:57:44.112Z,33.83
2023-02-22T10:02:01.094Z,30.47
2023-02-22T10:06:12.811Z,25.67
2023-02-22T10:10:24.339Z,24.33
2023-02-22T10:15:16.175Z,20.23
2023-02-22T10:19:54.989Z,25.43
2023-02-22T10:24:17.440Z,18.43
2023-02-22T10:28:36.231Z,18.83
2023-02-22T10:32:48.766Z,20.63
2023-02-22T10:37:06.368Z,19.08
2023-02-22T10:41:28.271Z,19.05
2023-02-22T10:45:37.834Z,14.77
2023-02-22T10:49:47.017Z,11.88
2023-02-22T10:54:25.176Z,10.95
2023-02-22T10:58:31.312Z,10.88
2023-02-22T11:02:39.559Z,10.82
2023-02-22T11:06:51.212Z,11.63
2023-02-22T11:11:07.530Z,10.77
2023-02-22T11:15:35.785Z,9.45
2023-02-22T11:19:39.407Z,8.48
2023-02-22T11:23:53.785Z,9.82
2023-02-22T11:28:00.360Z,8.77
2023-02-22T11:32:07.556Z,9.05
2023-02-22T11:36:18.108Z,9.68
2023-02-22T11:40:24.332Z,8.35
2023-02-22T11:44:34.473Z,10.13
2023-02-22T11:48:55.388Z,9.48
2023-02-22T11:53:30.402Z,11.02
2023-02-22T11:57:58.508Z,9.23
2023-02-22T12:02:33.313Z,12.55
2023-02-22T12:06:53.473Z,9.90
2023-02-22T12:11:13.516Z,8.68
2023-02-22T12:15:38.118Z,10.90
2023-02-22T12:19:48.938Z,10.52
2023-02-22T12:24:18.243Z,8.88
2023-02-22T12:28:38.061Z,8.45
2023-02-22T12:32:47.251Z,7.88
2023-02-22T12:37:01.814Z,7.15
2023-02-22T12:41:21.361Z,8.57
2023-02-22T12:45:48.237Z,8.57
2023-02-22T12:50:16.705Z,6.80
2023-02-22T12:54:38.286Z,7.07
2023-02-22T12:58:54.741Z,8.82
2023-02-22T13:03:07.874Z,6.78
2023-02-22T13:07:37.645Z,7.85
2023-02-22T13:16:35.536Z,10.00
2023-02-22T13:20:49.934Z,6.38
2023-02-22T13:25:06.920Z,5.10
2023-02-22T13:29:22.375Z,5.53
2023-02-22T13:33:56.921Z,6.45
2023-02-22T13:38:29.845Z,7.63
2023-02-22T13:43:12.498Z,5.57
2023-02-22T13:48:02.656Z,4.75
2023-02-22T13:52:14.943Z,5.32
2023-02-22T13:56:19.215Z,5.63
2023-02-22T14:00:58.289Z,4.35
2023-02-22T14:05:15.056Z,4.18
2023-02-22T14:09:50.862Z,4.05
2023-02-22T14:14:22.864Z,3.42
2023-02-22T14:18:23.491Z,3.58
2023-02-22T14:22:33.275Z,4.80
2023-02-22T14:26:38.225Z,5.05
2023-02-22T14:30:42.942Z,5.53
2023-02-22T14:34:57.188Z,4.72
2023-02-22T14:39:20.962Z,3.58
2023-02-22T14:43:27.256Z,2.70
2023-02-22T14:47:35.610Z,4.72
2023-02-22T14:51:47.242Z,3.15
2023-02-22T14:55:56.861Z,4.85
2023-02-22T15:00:22.561Z,3.83
2023-02-22T15:04:31.176Z,5.80
2023-02-22T15:08:34.743Z,6.10
2023-02-22T15:12:47.261Z,5.85
2023-02-22T15:16:56.754Z,6.05
2023-02-22T15:21:05.889Z,5.05
2023-02-22T15:25:12.366Z,3.20
2023-02-22T15:29:24.814Z,4.05
2023-02-22T15:33:38.218Z,5.47
2023-02-22T15:37:38.631Z,3.53
2023-02-22T15:41:43.398Z,5.63
2023-02-22T15:45:51.148Z,5.40
2023-02-22T15:50:25.850Z,4.07
2023-02-22T15:54:28.035Z,7.13
2023-02-22T15:58:32.373Z,5.40
2023-02-22T16:02:44.702Z,4.07
2023-02-22T16:06:48.621Z,5.82
2023-02-22T16:11:01.438Z,4.95
2023-02-22T16:15:03.092Z,3.45
2023-02-22T16:19:42.107Z,5.32
2023-02-22T16:23:52.132Z,5.05
2023-02-22T16:27:57.573Z,6.07
2023-02-22T16:31:58.344Z,7.13
2023-02-22T16:36:02.082Z,6.95
2023-02-22T16:40:02.639Z,5.03
2023-02-22T16:44:04.085Z,6.53
2023-02-22T16:48:14.674Z,6.95
2023-02-22T16:52:18.004Z,6.60
2023-02-22T16:56:23.601Z,16.03
2023-02-22T17:00:31.812Z,37.72
2023-02-22T17:04:32.439Z,36.13
2023-02-22T17:08:36.044Z,30.50
2023-02-22T17:12:36.775Z,22.73
2023-02-22T17:16:39.141Z,17.17
2023-02-22T17:20:45.203Z,22.73
2023-02-22T17:24:53.921Z,21.47
2023-02-22T17:28:54.318Z,21.90
2023-02-22T17:32:56.224Z,31.17
2023-02-22T17:36:57.180Z,30.97
2023-02-22T17:41:05.084Z,27.70
2023-02-22T17:45:06.036Z,31.97
2023-02-22T17:49:08.675Z,21.77
2023-02-22T17:53:11.391Z,18.07
2023-02-22T17:57:15.924Z,19.57
2023-02-22T18:01:27.284Z,17.00
2023-02-22T18:05:29.860Z,19.40
2023-02-22T18:09:31.613Z,20.60
2023-02-22T18:13:36.738Z,23.00
2023-02-22T18:17:39.197Z,23.90
2023-02-22T18:21:41.290Z,23.40
2023-02-22T18:25:43.730Z,23.70
2023-02-22T18:29:49.380Z,23.20
2023-02-22T18:33:53.621Z,25.03
2023-02-22T18:37:54.129Z,26.70
2023-02-22T18:41:54.628Z,24.97
2023-02-22T18:45:57.812Z,19.00
2023-02-22T18:49:58.255Z,21.73
2023-02-22T18:54:02.832Z,21.97
2023-02-22T18:58:11.264Z,20.07
2023-02-22T19:02:17.476Z,21.97
2023-02-22T19:06:19.996Z,24.63
2023-02-22T19:10:23.063Z,22.80
2023-02-22T19:14:24.512Z,24.83
2023-02-22T19:18:29.193Z,27.63
2023-02-22T19:22:33.036Z,20.80
2023-02-22T19:26:34.946Z,20.93
2023-02-22T19:30:35.661Z,19.30
2023-02-22T19:34:44.063Z,16.40
2023-02-22T19:38:46.576Z,20.00
2023-02-22T19:42:49.086Z,19.87
2023-02-22T19:46:49.739Z,20.67
2023-02-22T19:50:58.884Z,19.97
2023-02-22T19:55:00.428Z,19.90
2023-02-22T19:59:09.498Z,23.03
2023-02-22T20:03:13.589Z,24.47
2023-02-22T20:07:16.739Z,25.00
2023-02-22T20:11:18.359Z,21.77
2023-02-22T20:15:19.506Z,23.10
2023-02-22T20:19:23.174Z,18.30
2023-02-22T20:23:26.580Z,19.67
2023-02-22T20:27:28.072Z,19.30
2023-02-22T20:31:31.229Z,16.60
2023-02-22T20:35:32.015Z,16.53
2023-02-22T20:39:35.437Z,15.30
2023-02-22T20:43:38.334Z,14.53
2023-02-22T20:47:39.072Z,19.93
2023-02-22T20:51:44.888Z,17.70
2023-02-22T20:55:59.267Z,21.17
2023-02-22T21:00:00.992Z,23.30
2023-02-22T21:04:03.797Z,21.63
2023-02-22T21:08:04.463Z,21.97
2023-02-22T21:12:13.737Z,24.93
2023-02-22T21:16:21.407Z,17.83
2023-02-22T21:20:22.657Z,19.47
2023-02-22T21:24:24.030Z,42.83
2023-02-22T21:28:32.383Z,49.83
2023-02-22T21:32:45.537Z,45.27
2023-02-22T21:36:47.142Z,33.37
2023-02-22T21:40:50.807Z,32.13
2023-02-22T21:44:56.520Z,30.17
2023-02-22T21:48:58.808Z,30.97
2023-02-22T21:53:01.031Z,28.67
2023-02-22T21:57:02.796Z,36.07
2023-02-22T22:01:17.697Z,28.70
2023-02-22T22:05:32.810Z,28.03
2023-02-22T22:09:38.251Z,27.03
2023-02-22T22:13:42.467Z,28.30
2023-02-22T22:17:46.391Z,21.50
2023-02-22T22:21:49.978Z,18.27
2023-02-22T22:25:51.448Z,19.20
2023-02-22T22:29:51.810Z,19.23
2023-02-22T22:33:56.491Z,19.67
2023-02-22T22:37:59.833Z,17.30
2023-02-22T22:42:00.393Z,13.70
2023-02-22T22:46:03.500Z,26.37
2023-02-22T22:50:07.936Z,20.23
2023-02-22T22:54:09.527Z,24.27
2023-02-22T22:58:10.128Z,24.77
2023-02-22T23:02:13.535Z,27.97
2023-02-22T23:06:17.550Z,21.83
2023-02-22T23:10:22.696Z,14.83
2023-02-22T23:14:31.358Z,17.57
2023-02-22T23:18:34.149Z,14.10
2023-02-22T23:22:38.008Z,9.53
2023-02-22T23:26:42.110Z,8.33
2023-02-22T23:30:42.808Z,10.87
2023-02-22T23:34:44.579Z,8.80
2023-02-22T23:38:49.627Z,9.00
2023-02-22T23:42:53.995Z,7.20
2023-02-22T23:46:55.837Z,9.77
2023-02-22T23:50:59.287Z,8.73
2023-02-22T23:55:05.842Z,10.83
2023-02-22T23:59:11.367Z,12.30
